createdAt,value
2022-11-29T00:01:55.099Z,21.65
2022-11-29T00:04:40.601Z,22.55
2022-11-29T00:07:25.854Z,21.90
2022-11-29T00:10:11.426Z,21.95
2022-11-29T00:12:56.491Z,21.55
2022-11-29T00:15:41.933Z,22.83
2022-11-29T00:18:27.469Z,21.15
2022-11-29T00:21:12.880Z,20.15
2022-11-29T00:23:58.195Z,20.67
2022-11-29T00:26:43.578Z,20.50
2022-11-29T00:29:29.839Z,21.00
2022-11-29T00:32:15.166Z,19.60
2022-11-29T00:35:03.999Z,18.55
2022-11-29T00:37:52.119Z,18.63
2022-11-29T00:40:37.455Z,18.55
2022-11-29T00:43:23.052Z,19.10
2022-11-29T00:46:09.139Z,19.88
2022-11-29T00:48:54.476Z,18.13
2022-11-29T00:51:39.958Z,18.85
2022-11-29T00:54:25.664Z,18.88
2022-11-29T00:57:10.880Z,20.10
2022-11-29T00:59:56.267Z,19.92
2022-11-29T01:02:41.598Z,18.90
2022-11-29T01:05:26.979Z,17.95
2022-11-29T01:08:13.420Z,19.00
2022-11-29T01:11:12.871Z,19.58
2022-11-29T01:14:00.677Z,20.08
2022-11-29T01:16:45.842Z,19.83
2022-11-29T01:19:31.261Z,18.55
2022-11-29T01:22:16.743Z,19.70
2022-11-29T01:25:02.695Z,20.00
2022-11-29T01:27:48.296Z,20.55
2022-11-29T01:30:33.472Z,21.38
2022-11-29T01:33:18.874Z,20.33
2022-11-29T01:36:05.664Z,21.38
2022-11-29T01:38:51.130Z,20.27
2022-11-29T01:41:37.724Z,19.98
2022-11-29T01:44:23.018Z,20.80
2022-11-29T01:47:11.010Z,19.88
2022-11-29T01:49:56.551Z,19.88
2022-11-29T01:52:42.301Z,21.13
2022-11-29T01:55:28.279Z,20.08
2022-11-29T01:58:14.763Z,21.25
2022-11-29T02:01:01.163Z,23.00
2022-11-29T02:03:47.076Z,20.60
2022-11-29T02:06:32.746Z,20.80
2022-11-29T02:09:23.089Z,21.02
2022-11-29T02:12:27.075Z,21.50
2022-11-29T02:15:36.960Z,20.55
2022-11-29T02:18:35.688Z,22.75
2022-11-29T02:21:49.389Z,22.75
2022-11-29T02:24:43.863Z,22.95
2022-11-29T02:27:42.845Z,21.77
2022-11-29T02:30:46.167Z,20.98
2022-11-29T02:33:37.570Z,20.60
2022-11-29T02:36:37.660Z,19.20
2022-11-29T02:39:46.740Z,19.55
2022-11-29T02:42:54.071Z,18.98
2022-11-29T02:46:00.674Z,18.05
2022-11-29T02:49:13.819Z,19.67
2022-11-29T02:52:08.611Z,19.38
2022-11-29T02:55:16.026Z,18.48
2022-11-29T02:58:10.623Z,19.00
2022-11-29T03:01:04.421Z,19.00
2022-11-29T03:04:18.616Z,18.52
2022-11-29T03:07:23.657Z,19.15
2022-11-29T03:10:20.658Z,19.17
2022-11-29T03:13:18.039Z,18.83
2022-11-29T03:16:42.584Z,18.77
2022-11-29T03:19:48.086Z,18.02
2022-11-29T03:22:51.946Z,17.92
2022-11-29T03:25:45.971Z,17.75
2022-11-29T03:29:01.042Z,17.63
2022-11-29T03:31:55.308Z,18.45
2022-11-29T03:35:04.071Z,17.42
2022-11-29T03:38:19.125Z,17.65
2022-11-29T03:41:32.700Z,17.75
2022-11-29T03:44:23.971Z,17.08
2022-11-29T03:47:14.548Z,16.17
2022-11-29T03:50:11.192Z,16.67
2022-11-29T03:53:20.172Z,16.73
2022-11-29T03:56:28.400Z,15.80
2022-11-29T03:59:54.987Z,15.02
2022-11-29T04:03:20.943Z,14.45
2022-11-29T04:06:35.036Z,15.00
2022-11-29T04:09:26.760Z,14.30
2022-11-29T04:12:21.164Z,14.10
2022-11-29T04:15:52.805Z,13.02
2022-11-29T04:19:06.120Z,13.48
2022-11-29T04:25:05.555Z,13.27
2022-11-29T04:28:12.992Z,13.55
2022-11-29T04:31:26.750Z,13.98
2022-11-29T04:34:39.799Z,13.40
2022-11-29T04:37:43.636Z,13.48
2022-11-29T04:40:51.402Z,15.35
2022-11-29T04:43:50.018Z,14.13
2022-11-29T04:46:54.442Z,14.68
2022-11-29T04:49:57.002Z,15.05
2022-11-29T04:53:04.139Z,13.43
2022-11-29T04:55:59.098Z,13.77
2022-11-29T04:59:23.047Z,14.80
2022-11-29T05:02:34.731Z,14.05
2022-11-29T05:05:30.040Z,14.68
2022-11-29T05:08:24.167Z,13.82
2022-11-29T05:11:41.612Z,13.75
2022-11-29T05:14:49.672Z,14.32
2022-11-29T05:18:07.564Z,12.70
2022-11-29T05:21:09.239Z,13.05
2022-11-29T05:23:57.350Z,14.18
2022-11-29T05:27:09.061Z,13.13
2022-11-29T05:29:58.300Z,13.68
2022-11-29T05:33:09.890Z,12.75
2022-11-29T05:36:14.934Z,12.45
2022-11-29T05:39:43.880Z,12.57
2022-11-29T05:42:52.295Z,11.38
2022-11-29T05:45:54.734Z,12.00
2022-11-29T05:49:04.948Z,11.15
2022-11-29T05:52:05.668Z,11.45
2022-11-29T05:55:15.257Z,11.05
2022-11-29T05:58:30.075Z,10.70
2022-11-29T06:01:39.341Z,10.35
2022-11-29T06:04:49.739Z,9.98
2022-11-29T06:07:55.042Z,10.10
2022-11-29T06:11:00.867Z,10.10
2022-11-29T06:13:59.436Z,10.23
2022-11-29T06:16:56.936Z,10.38
2022-11-29T06:20:14.283Z,9.65
2022-11-29T06:23:17.589Z,10.02
2022-11-29T06:26:17.599Z,9.45
2022-11-29T06:29:37.856Z,10.13
2022-11-29T06:32:40.144Z,9.75
2022-11-29T06:36:07.284Z,10.20
2022-11-29T06:38:52.336Z,9.88
2022-11-29T06:41:37.888Z,11.63
2022-11-29T06:44:23.567Z,9.75
2022-11-29T06:47:32.582Z,10.90
2022-11-29T06:50:33.954Z,10.88
2022-11-29T06:53:49.364Z,9.88
2022-11-29T06:56:49.203Z,10.50
2022-11-29T06:59:40.136Z,9.55
2022-11-29T07:03:03.028Z,10.73
2022-11-29T07:05:48.458Z,11.20
2022-11-29T07:08:33.824Z,11.50
2022-11-29T07:11:19.631Z,10.57
2022-11-29T07:14:05.226Z,11.38
2022-11-29T07:17:26.605Z,11.07
2022-11-29T07:20:30.158Z,11.10
2022-11-29T07:23:37.031Z,11.35
2022-11-29T07:26:41.958Z,10.75
2022-11-29T07:29:48.623Z,10.90
2022-11-29T07:32:50.897Z,10.00
2022-11-29T07:36:03.674Z,10.30
2022-11-29T07:39:19.415Z,9.65
2022-11-29T07:42:24.570Z,9.07
2022-11-29T07:45:36.673Z,9.30
2022-11-29T07:48:21.909Z,8.57
2022-11-29T07:51:07.486Z,9.35
2022-11-29T07:53:52.884Z,8.65
2022-11-29T07:56:38.315Z,9.02
2022-11-29T07:59:23.709Z,9.27
2022-11-29T08:02:12.116Z,8.50
2022-11-29T08:32:06.753Z,8.85
2022-11-29T08:34:52.652Z,8.40
2022-11-29T08:37:37.690Z,7.25
2022-11-29T08:40:24.051Z,7.35
2022-11-29T08:43:09.715Z,6.68
2022-11-29T08:45:55.255Z,7.38
2022-11-29T08:48:40.717Z,7.32
2022-11-29T08:51:25.974Z,7.13
2022-11-29T08:54:11.413Z,6.68
2022-11-29T09:00:02.497Z,6.80
2022-11-29T09:02:48.388Z,6.80
2022-11-29T09:05:33.410Z,6.63
2022-11-29T09:08:18.889Z,6.93
2022-11-29T09:11:13.142Z,6.57
2022-11-29T09:14:00.719Z,6.95
2022-11-29T09:16:46.047Z,7.30
2022-11-29T09:19:31.227Z,7.70
2022-11-29T09:22:16.580Z,7.70
2022-11-29T09:25:02.009Z,7.47
2022-11-29T09:27:47.480Z,7.57
2022-11-29T09:30:34.943Z,7.38
2022-11-29T09:33:20.390Z,7.65
2022-11-29T09:36:07.566Z,8.25
2022-11-29T09:38:52.748Z,8.77
2022-11-29T09:42:01.739Z,8.32
2022-11-29T09:45:09.204Z,8.23
2022-11-29T09:48:28.318Z,8.15
2022-11-29T09:51:44.585Z,8.15
2022-11-29T09:55:00.466Z,7.55
2022-11-29T09:57:46.707Z,7.90
2022-11-29T10:00:38.157Z,8.45
2022-11-29T10:03:40.476Z,8.30
2022-11-29T10:06:39.632Z,8.13
2022-11-29T10:09:34.079Z,7.78
2022-11-29T10:12:37.696Z,7.95
2022-11-29T10:15:27.476Z,7.75
2022-11-29T10:18:28.657Z,7.88
2022-11-29T10:21:24.632Z,7.35
2022-11-29T10:24:14.717Z,7.40
2022-11-29T10:27:00.312Z,7.47
2022-11-29T10:29:50.047Z,7.80
2022-11-29T10:32:35.326Z,8.15
2022-11-29T10:35:20.965Z,7.93
2022-11-29T10:38:29.740Z,7.03
2022-11-29T10:41:19.263Z,7.38
2022-11-29T10:44:05.164Z,7.90
2022-11-29T10:46:50.947Z,7.55
2022-11-29T10:49:37.899Z,8.05
2022-11-29T10:52:24.257Z,7.75
2022-11-29T10:55:14.499Z,7.40
2022-11-29T10:58:09.304Z,7.68
2022-11-29T11:00:58.375Z,7.50
2022-11-29T11:03:53.002Z,8.02
2022-11-29T11:06:46.744Z,7.32
2022-11-29T11:09:36.276Z,7.70
2022-11-29T11:12:27.770Z,7.60
2022-11-29T11:15:29.124Z,8.40
2022-11-29T11:18:23.738Z,7.57
2022-11-29T11:21:18.090Z,8.68
2022-11-29T11:24:03.524Z,8.15
2022-11-29T11:26:48.775Z,8.00
2022-11-29T11:29:40.993Z,8.32
2022-11-29T11:32:26.340Z,8.38
2022-11-29T11:35:23.217Z,9.13
2022-11-29T11:38:17.111Z,8.50
2022-11-29T11:41:21.965Z,8.25
2022-11-29T11:47:37.744Z,10.30
2022-11-29T11:50:43.346Z,9.63
2022-11-29T11:53:34.134Z,9.00
2022-11-29T11:56:19.803Z,9.90
2022-11-29T11:59:05.461Z,9.63
2022-11-29T12:01:51.280Z,9.20
2022-11-29T12:04:37.917Z,9.63
2022-11-29T12:08:07.890Z,9.73
2022-11-29T12:10:53.917Z,9.35
2022-11-29T12:13:45.423Z,10.07
2022-11-29T12:16:36.291Z,9.85
2022-11-29T12:19:27.447Z,11.80
2022-11-29T12:22:19.458Z,11.07
2022-11-29T12:25:11.374Z,11.40
2022-11-29T12:27:56.892Z,11.02
2022-11-29T12:30:57.221Z,10.55
2022-11-29T12:33:54.359Z,10.38
2022-11-29T12:36:53.593Z,11.43
2022-11-29T12:39:42.204Z,9.95
2022-11-29T12:42:57.853Z,9.80
2022-11-29T12:46:09.194Z,9.23
2022-11-29T12:49:12.901Z,9.55
2022-11-29T12:52:20.104Z,9.43
2022-11-29T12:55:30.492Z,8.50
2022-11-29T12:58:53.505Z,8.45
2022-11-29T13:01:53.638Z,8.40
2022-11-29T13:05:01.049Z,8.35
2022-11-29T13:07:59.633Z,8.23
2022-11-29T13:11:03.371Z,7.28
2022-11-29T13:14:34.710Z,6.97
2022-11-29T13:17:33.620Z,6.85
2022-11-29T13:20:55.017Z,6.05
2022-11-29T13:24:09.861Z,4.90
2022-11-29T13:26:55.959Z,5.00
2022-11-29T13:29:41.686Z,5.00
2022-11-29T13:32:33.887Z,4.70
2022-11-29T13:35:41.277Z,4.43
2022-11-29T13:38:43.484Z,4.30
2022-11-29T13:41:42.936Z,3.97
2022-11-29T13:44:47.793Z,4.18
2022-11-29T13:47:33.092Z,4.00
2022-11-29T13:50:40.483Z,4.20
2022-11-29T13:53:48.217Z,4.63
2022-11-29T13:56:45.849Z,4.22
2022-11-29T13:59:33.513Z,4.20
2022-11-29T14:02:28.468Z,3.85
2022-11-29T14:05:28.780Z,3.75
2022-11-29T14:08:26.455Z,3.80
2022-11-29T14:11:14.872Z,3.60
2022-11-29T14:14:17.736Z,3.65
2022-11-29T14:19:49.464Z,4.05
2022-11-29T14:22:35.152Z,3.72
2022-11-29T14:25:50.460Z,3.70
2022-11-29T14:28:38.644Z,3.65
2022-11-29T14:31:47.089Z,3.72
2022-11-29T14:34:37.831Z,3.63
2022-11-29T14:37:50.344Z,3.20
2022-11-29T14:40:51.255Z,2.80
2022-11-29T14:43:38.405Z,2.78
2022-11-29T14:46:29.419Z,2.42
2022-11-29T14:49:26.359Z,2.50
2022-11-29T14:52:14.786Z,2.20
2022-11-29T14:55:28.946Z,2.38
2022-11-29T14:58:20.109Z,2.70
2022-11-29T15:01:10.609Z,2.60
2022-11-29T15:03:56.856Z,2.20
2022-11-29T15:06:47.508Z,2.30
2022-11-29T15:09:38.443Z,2.05
2022-11-29T15:12:33.947Z,2.30
2022-11-29T15:15:53.095Z,2.25
2022-11-29T15:18:59.125Z,2.10
2022-11-29T15:22:18.068Z,2.45
2022-11-29T15:25:11.727Z,2.40
2022-11-29T15:27:59.810Z,2.20
2022-11-29T15:30:45.312Z,1.90
2022-11-29T15:33:31.417Z,2.45
2022-11-29T15:36:22.118Z,1.92
2022-11-29T15:39:27.282Z,2.33
2022-11-29T15:42:15.403Z,2.33
2022-11-29T15:45:00.738Z,2.10
2022-11-29T15:47:46.088Z,2.50
2022-11-29T15:50:33.466Z,2.38
2022-11-29T15:53:27.036Z,2.30
2022-11-29T15:56:20.898Z,2.80
2022-11-29T15:59:33.174Z,2.38
2022-11-29T16:02:26.077Z,2.50
2022-11-29T16:05:20.120Z,2.30
2022-11-29T16:08:12.275Z,2.30
2022-11-29T16:14:02.456Z,2.13
2022-11-29T16:16:52.633Z,2.08
2022-11-29T16:19:40.045Z,2.50
2022-11-29T16:22:25.364Z,2.30
2022-11-29T16:25:19.394Z,2.80
2022-11-29T16:28:05.949Z,2.35
2022-11-29T16:30:52.148Z,2.05
2022-11-29T16:33:38.216Z,2.15
2022-11-29T16:36:26.631Z,2.30
2022-11-29T16:39:24.004Z,2.40
2022-11-29T16:42:22.039Z,2.35
2022-11-29T16:45:35.421Z,2.50
2022-11-29T16:48:25.501Z,2.50
2022-11-29T16:51:10.855Z,2.58
2022-11-29T16:54:23.659Z,3.00
2022-11-29T16:57:09.409Z,2.55
2022-11-29T16:59:54.968Z,2.92
2022-11-29T17:02:40.543Z,3.10
2022-11-29T17:05:26.218Z,3.50
2022-11-29T17:08:11.603Z,3.15
2022-11-29T17:10:57.122Z,3.25
2022-11-29T17:13:42.583Z,2.92
2022-11-29T17:16:28.096Z,3.13
2022-11-29T17:19:13.581Z,2.90
2022-11-29T17:21:58.973Z,2.83
2022-11-29T17:24:48.071Z,3.05
2022-11-29T17:27:33.677Z,3.10
2022-11-29T17:30:19.344Z,2.65
2022-11-29T17:33:04.545Z,2.90
2022-11-29T17:35:49.797Z,2.88
2022-11-29T17:38:35.703Z,2.60
2022-11-29T17:41:23.702Z,3.13
2022-11-29T17:44:08.837Z,3.17
2022-11-29T17:46:54.445Z,3.20
2022-11-29T17:49:39.794Z,2.92
2022-11-29T17:52:25.362Z,2.85
2022-11-29T17:55:10.821Z,2.95
2022-11-29T17:57:56.236Z,2.90
2022-11-29T18:00:41.544Z,3.10
2022-11-29T18:03:26.825Z,2.75
2022-11-29T18:06:15.165Z,2.75
2022-11-29T18:09:01.397Z,3.58
2022-11-29T18:11:49.674Z,3.47
2022-11-29T18:14:36.238Z,3.45
2022-11-29T18:17:21.607Z,3.53
2022-11-29T18:20:07.707Z,3.10
2022-11-29T18:22:53.377Z,3.22
2022-11-29T18:25:39.883Z,3.10
2022-11-29T18:28:26.655Z,3.85
2022-11-29T18:31:20.510Z,3.90
2022-11-29T18:34:09.378Z,4.25
2022-11-29T18:36:55.141Z,4.35
2022-11-29T18:39:40.404Z,4.13
2022-11-29T18:42:25.971Z,3.72
2022-11-29T18:45:11.495Z,3.65
2022-11-29T18:47:58.359Z,3.58
2022-11-29T18:50:43.592Z,3.25
2022-11-29T18:53:28.841Z,3.83
2022-11-29T18:56:19.907Z,3.72
2022-11-29T18:59:19.004Z,3.40
2022-11-29T19:02:04.016Z,3.58
2022-11-29T19:04:50.138Z,4.07
2022-11-29T19:07:35.232Z,3.95
2022-11-29T19:10:20.591Z,3.50
2022-11-29T19:13:05.976Z,4.25
2022-11-29T19:15:53.167Z,3.90
2022-11-29T19:18:38.414Z,4.20
2022-11-29T19:21:25.871Z,3.17
2022-11-29T19:24:14.750Z,3.72
2022-11-29T19:27:01.067Z,3.15
2022-11-29T19:29:46.567Z,3.50
2022-11-29T19:32:31.880Z,3.47
2022-11-29T19:35:17.490Z,3.10
2022-11-29T19:38:02.825Z,2.90
2022-11-29T19:40:48.175Z,3.78
2022-11-29T19:43:33.623Z,3.25
2022-11-29T19:46:25.737Z,3.00
2022-11-29T19:49:11.737Z,2.63
2022-11-29T19:51:57.036Z,3.13
2022-11-29T19:54:42.373Z,2.90
2022-11-29T19:57:28.400Z,2.90
2022-11-29T20:00:14.312Z,2.50
2022-11-29T20:03:00.080Z,8.30
2022-11-29T20:05:54.436Z,6.55
2022-11-29T20:08:40.518Z,4.10
2022-11-29T20:11:26.680Z,3.92
2022-11-29T20:14:12.879Z,3.13
2022-11-29T20:16:58.366Z,4.32
2022-11-29T20:19:44.432Z,4.20
2022-11-29T20:22:30.138Z,4.45
2022-11-29T20:25:15.747Z,4.55
2022-11-29T20:28:01.407Z,4.10
2022-11-29T20:30:46.937Z,4.25
2022-11-29T20:33:32.380Z,3.63
2022-11-29T20:36:32.271Z,3.30
2022-11-29T20:39:45.381Z,3.50
2022-11-29T20:42:49.199Z,3.13
2022-11-29T20:45:34.626Z,3.65
2022-11-29T20:48:22.665Z,3.50
2022-11-29T20:51:10.401Z,3.70
2022-11-29T20:53:55.794Z,4.43
2022-11-29T20:56:40.819Z,4.10
2022-11-29T20:59:26.304Z,4.10
2022-11-29T21:02:11.650Z,4.18
2022-11-29T21:04:57.065Z,4.57
2022-11-29T21:07:43.141Z,4.53
2022-11-29T21:10:28.552Z,4.22
2022-11-29T21:13:15.282Z,4.25
2022-11-29T21:16:01.427Z,4.18
2022-11-29T21:18:48.476Z,4.50
2022-11-29T21:21:50.636Z,4.40
2022-11-29T21:24:36.598Z,4.18
2022-11-29T21:27:28.891Z,4.43
2022-11-29T21:30:20.200Z,4.10
2022-11-29T21:33:05.704Z,3.85
2022-11-29T21:35:54.168Z,4.30
2022-11-29T21:38:39.968Z,3.90
2022-11-29T21:41:25.105Z,4.32
2022-11-29T21:44:10.571Z,4.07
2022-11-29T21:46:55.993Z,4.50
2022-11-29T21:49:41.500Z,4.30
2022-11-29T21:52:26.886Z,4.72
2022-11-29T21:55:12.323Z,4.30
2022-11-29T21:57:57.688Z,4.55
2022-11-29T22:00:43.656Z,4.47
2022-11-29T22:03:29.205Z,4.03
2022-11-29T22:06:20.210Z,4.18
2022-11-29T22:09:07.508Z,4.55
2022-11-29T22:11:53.230Z,4.53
2022-11-29T22:14:38.835Z,4.22
2022-11-29T22:17:24.354Z,4.72
2022-11-29T22:20:10.287Z,4.60
2022-11-29T22:22:58.716Z,4.63
2022-11-29T22:25:44.259Z,4.20
2022-11-29T22:28:29.718Z,4.32
2022-11-29T22:31:15.244Z,4.78
2022-11-29T22:34:00.703Z,4.68
2022-11-29T22:36:46.484Z,4.47
2022-11-29T22:39:31.490Z,4.80
2022-11-29T22:42:16.887Z,4.85
2022-11-29T22:45:03.991Z,4.75
2022-11-29T22:47:49.019Z,5.30
2022-11-29T22:50:34.680Z,5.60
2022-11-29T22:53:19.799Z,6.55
2022-11-29T22:56:07.188Z,7.80
2022-11-29T22:58:52.334Z,7.60
2022-11-29T23:01:39.964Z,7.20
2022-11-29T23:04:27.169Z,9.40
2022-11-29T23:07:12.588Z,9.60
2022-11-29T23:09:58.012Z,9.98
2022-11-29T23:12:44.597Z,10.40
2022-11-29T23:15:30.028Z,10.10
2022-11-29T23:18:15.435Z,9.77
2022-11-29T23:21:06.783Z,10.35
2022-11-29T23:23:56.406Z,10.73
2022-11-29T23:26:46.044Z,10.25
2022-11-29T23:29:31.421Z,10.90
2022-11-29T23:32:16.903Z,11.10
2022-11-29T23:35:02.327Z,10.43
2022-11-29T23:37:47.747Z,10.02
2022-11-29T23:40:33.987Z,10.38
2022-11-29T23:43:19.327Z,10.32
2022-11-29T23:46:17.783Z,10.30
2022-11-29T23:49:03.645Z,9.07
2022-11-29T23:51:48.991Z,10.10
2022-11-29T23:54:34.370Z,9.68
2022-11-29T23:57:19.852Z,10.00
